Airfield :
LOGIN :

Register | Disclaimer

   EN    FR    IT 

 










Legend :    VFR   Marginal VFR   IFR   Intensive IFR   Very Intensive IFR
Visi :
Ceiling :
>= 8 km
>= 3000ft
5 to 8 km
1000 to 3000 ft
1500m to 5 km
500 to 1000 ft
800 to 1500m
200 to 500 ft
< 800m
< 200 ft
Symbols :   Thunderstorms  Fog  Heavy snow  Heavy precipitations  Wind > 20 kt
SIGMETs :     Misc.  Thunderstorms  Icing  Turbulence  Mountain Waves  Volcanic Ashes







- Airport Elevation : 408 ft
- IATA code : FKB


EDSB - Karlsruhe Baden Baden

CURRENT METAR :
  • 161720Z 35004KT 310V020 CAVOK 30/10 Q1013

EXPIRED METARs :
  • 161650Z VRB02KT CAVOK 31/11 Q1013
  • 161620Z 30003KT 230V030 CAVOK 31/11 Q1013
  • 161550Z 30003KT 220V020 CAVOK 31/11 Q1013
  • 161520Z 29004KT 230V020 CAVOK 31/11 Q1013
  • 161450Z 31004KT 220V020 CAVOK 31/11 Q1014
  • 161420Z 28004KT 230V020 CAVOK 31/11 Q1014

TAF TAF EDSB
Valid from the 16 at 12:00 until the 17 at 12:00 UTC


161100Z 1612/1712 35004KT CAVOK
BECMG 1707/1709 27006KT
No reported NOTAMs for that airfield.



MET'MAP, your aeronautical weather chart ! - Copyright ORBIFLY December 2007 - Disclaimer

ORBIFLY MET'MAP TEAM :

Programming & Development : Alexandra Zaïnal
Concept & Development : Baudouin d'Aumeries
Co-Development & Prog : Marc-Olivier Méhu
Technical & hardware support : Manuel Goepfert

Contact : metmap@orbifly.com




SOURCES & CREDITS :

   NOAA